sensor_id;sensor_type;location;lat;lon;timestamp;pressure;altitude;pressure_sealevel;temperature;humidity
59043;BME280;44826;51.596;5.624;2023-02-12T00:01:42;103746.03;;;6.81;84.89
59043;BME280;44826;51.596;5.624;2023-02-12T00:04:07;103751.22;;;6.81;84.80
59043;BME280;44826;51.596;5.624;2023-02-12T00:06:33;103743.41;;;6.79;83.72
59043;BME280;44826;51.596;5.624;2023-02-12T00:08:58;103749.41;;;6.78;83.52
59043;BME280;44826;51.596;5.624;2023-02-12T00:11:26;103743.44;;;6.81;84.17
59043;BME280;44826;51.596;5.624;2023-02-12T00:13:52;103742.50;;;6.79;84.20
59043;BME280;44826;51.596;5.624;2023-02-12T00:16:21;103742.47;;;6.77;84.77
59043;BME280;44826;51.596;5.624;2023-02-12T00:18:50;103750.16;;;6.76;84.40
59043;BME280;44826;51.596;5.624;2023-02-12T00:21:16;103744.97;;;6.76;83.66
59043;BME280;44826;51.596;5.624;2023-02-12T00:23:41;103747.56;;;6.76;83.33
59043;BME280;44826;51.596;5.624;2023-02-12T00:26:11;103753.63;;;6.76;83.05
59043;BME280;44826;51.596;5.624;2023-02-12T00:28:37;103757.97;;;6.77;82.98
59043;BME280;44826;51.596;5.624;2023-02-12T00:31:07;103757.16;;;6.78;82.34
59043;BME280;44826;51.596;5.624;2023-02-12T00:33:33;103763.19;;;6.79;81.55
59043;BME280;44826;51.596;5.624;2023-02-12T00:35:58;103761.44;;;6.78;81.76
59043;BME280;44826;51.596;5.624;2023-02-12T00:38:23;103763.19;;;6.79;81.76
59043;BME280;44826;51.596;5.624;2023-02-12T00:40:49;103754.56;;;6.78;81.62
59043;BME280;44826;51.596;5.624;2023-02-12T00:43:14;103748.50;;;6.78;81.16
59043;BME280;44826;51.596;5.624;2023-02-12T00:45:39;103751.09;;;6.78;81.40
59043;BME280;44826;51.596;5.624;2023-02-12T00:48:05;103750.22;;;6.77;81.44
59043;BME280;44826;51.596;5.624;2023-02-12T00:50:30;103751.97;;;6.78;81.36
59043;BME280;44826;51.596;5.624;2023-02-12T00:52:56;103753.75;;;6.79;81.21
59043;BME280;44826;51.596;5.624;2023-02-12T00:55:21;103750.34;;;6.80;81.08
59043;BME280;44826;51.596;5.624;2023-02-12T00:57:46;103742.56;;;6.80;80.48
59043;BME280;44826;51.596;5.624;2023-02-12T01:00:13;103741.69;;;6.80;80.46
59043;BME280;44826;51.596;5.624;2023-02-12T01:02:38;103741.69;;;6.80;80.33
59043;BME280;44826;51.596;5.624;2023-02-12T01:05:04;103740.00;;;6.80;80.37
59043;BME280;44826;51.596;5.624;2023-02-12T01:07:29;103746.94;;;6.81;79.98
59043;BME280;44826;51.596;5.624;2023-02-12T01:09:55;103745.22;;;6.82;80.06
59043;BME280;44826;51.596;5.624;2023-02-12T01:12:20;103743.53;;;6.82;80.46
59043;BME280;44826;51.596;5.624;2023-02-12T01:14:45;103745.25;;;6.83;80.21
59043;BME280;44826;51.596;5.624;2023-02-12T01:17:10;103746.09;;;6.82;79.92
59043;BME280;44826;51.596;5.624;2023-02-12T01:19:36;103746.94;;;6.81;80.43
59043;BME280;44826;51.596;5.624;2023-02-12T01:22:01;103746.94;;;6.81;80.53
59043;BME280;44826;51.596;5.624;2023-02-12T01:24:26;103753.78;;;6.81;80.64
59043;BME280;44826;51.596;5.624;2023-02-12T01:26:51;103750.34;;;6.80;81.10
59043;BME280;44826;51.596;5.624;2023-02-12T01:29:17;103752.03;;;6.80;81.68
59043;BME280;44826;51.596;5.624;2023-02-12T01:31:42;103740.75;;;6.78;81.86
59043;BME280;44826;51.596;5.624;2023-02-12T01:34:09;103748.34;;;6.73;82.63
59043;BME280;44826;51.596;5.624;2023-02-12T01:36:35;103747.34;;;6.70;82.73
59043;BME280;44826;51.596;5.624;2023-02-12T01:39:00;103746.38;;;6.66;83.00
59043;BME280;44826;51.596;5.624;2023-02-12T01:41:39;103743.69;;;6.64;82.24
59043;BME280;44826;51.596;5.624;2023-02-12T01:44:19;103744.59;;;6.65;81.84
59043;BME280;44826;51.596;5.624;2023-02-12T01:46:46;103742.84;;;6.64;81.30
59043;BME280;44826;51.596;5.624;2023-02-12T01:51:52;103739.41;;;6.65;80.36
59043;BME280;44826;51.596;5.624;2023-02-12T01:54:18;103741.19;;;6.66;80.79
59043;BME280;44826;51.596;5.624;2023-02-12T01:56:45;103739.47;;;6.66;81.33
59043;BME280;44826;51.596;5.624;2023-02-12T01:59:10;103744.69;;;6.68;81.36
59043;BME280;44826;51.596;5.624;2023-02-12T02:01:36;103746.41;;;6.67;82.32
59043;BME280;44826;51.596;5.624;2023-02-12T02:04:10;103744.59;;;6.65;82.06
59043;BME280;44826;51.596;5.624;2023-02-12T02:06:48;103741.06;;;6.63;82.43
59043;BME280;44826;51.596;5.624;2023-02-12T02:09:16;103739.19;;;6.59;82.40
59043;BME280;44826;51.596;5.624;2023-02-12T02:11:42;103739.88;;;6.55;82.50
59043;BME280;44826;51.596;5.624;2023-02-12T02:14:26;103738.94;;;6.52;82.76
59043;BME280;44826;51.596;5.624;2023-02-12T02:22:32;103733.44;;;6.43;83.79
59043;BME280;44826;51.596;5.624;2023-02-12T02:28:06;103728.38;;;6.46;83.36
59043;BME280;44826;51.596;5.624;2023-02-12T02:30:42;103736.84;;;6.42;84.24
59043;BME280;44826;51.596;5.624;2023-02-12T02:33:35;103732.44;;;6.40;83.99
59043;BME280;44826;51.596;5.624;2023-02-12T02:41:26;103734.72;;;6.32;84.39
59043;BME280;44826;51.596;5.624;2023-02-12T02:43:53;103729.56;;;6.32;84.89
59043;BME280;44826;51.596;5.624;2023-02-12T02:48:54;103732.84;;;6.28;85.22
59043;BME280;44826;51.596;5.624;2023-02-12T02:51:24;103732.00;;;6.29;84.82
59043;BME280;44826;51.596;5.624;2023-02-12T02:53:57;103728.47;;;6.27;84.84
59043;BME280;44826;51.596;5.624;2023-02-12T02:56:26;103732.84;;;6.28;84.97
59043;BME280;44826;51.596;5.624;2023-02-12T02:59:15;103732.84;;;6.28;85.02
59043;BME280;44826;51.596;5.624;2023-02-12T03:01:45;103722.41;;;6.26;85.15
59043;BME280;44826;51.596;5.624;2023-02-12T03:04:20;103722.50;;;6.28;85.04
59043;BME280;44826;51.596;5.624;2023-02-12T03:06:57;103729.47;;;6.30;85.35
59043;BME280;44826;51.596;5.624;2023-02-12T03:09:37;103725.94;;;6.28;84.51
59043;BME280;44826;51.596;5.624;2023-02-12T03:12:08;103725.91;;;6.27;84.30
59043;BME280;44826;51.596;5.624;2023-02-12T03:14:39;103723.31;;;6.27;84.12
59043;BME280;44826;51.596;5.624;2023-02-12T03:17:09;103731.06;;;6.27;84.06
59043;BME280;44826;51.596;5.624;2023-02-12T03:19:44;103726.78;;;6.27;83.97
59043;BME280;44826;51.596;5.624;2023-02-12T03:22:11;103720.09;;;6.32;83.97
59043;BME280;44826;51.596;5.624;2023-02-12T03:24:43;103719.09;;;6.29;84.24
59043;BME280;44826;51.596;5.624;2023-02-12T03:27:12;103719.09;;;6.29;83.51
59043;BME280;44826;51.596;5.624;2023-02-12T03:29:40;103721.69;;;6.29;83.36
59043;BME280;44826;51.596;5.624;2023-02-12T03:40:34;103720.84;;;6.30;84.15
59043;BME280;44826;51.596;5.624;2023-02-12T03:43:15;103721.69;;;6.29;83.73
59043;BME280;44826;51.596;5.624;2023-02-12T03:45:51;103726.84;;;6.29;83.59
59043;BME280;44826;51.596;5.624;2023-02-12T03:48:27;103721.69;;;6.29;82.85
59043;BME280;44826;51.596;5.624;2023-02-12T03:51:22;103717.38;;;6.29;83.64
59043;BME280;44826;51.596;5.624;2023-02-12T03:53:46;103722.72;;;6.34;83.85
59043;BME280;44826;51.596;5.624;2023-02-12T03:56:16;103723.44;;;6.30;83.23
59043;BME280;44826;51.596;5.624;2023-02-12T03:58:43;103715.69;;;6.30;83.07
59043;BME280;44826;51.596;5.624;2023-02-12T04:01:10;103714.78;;;6.29;83.19
59043;BME280;44826;51.596;5.624;2023-02-12T04:03:36;103721.69;;;6.29;82.13
59043;BME280;44826;51.596;5.624;2023-02-12T04:06:02;103730.28;;;6.29;83.49
59043;BME280;44826;51.596;5.624;2023-02-12T04:08:28;103718.28;;;6.30;82.72
59043;BME280;44826;51.596;5.624;2023-02-12T04:10:57;103714.75;;;6.28;83.05
59043;BME280;44826;51.596;5.624;2023-02-12T04:16:21;103719.84;;;6.26;83.21
59043;BME280;44826;51.596;5.624;2023-02-12T04:18:49;103722.38;;;6.25;82.43
59043;BME280;44826;51.596;5.624;2023-02-12T04:26:41;103734.47;;;6.26;81.91
59043;BME280;44826;51.596;5.624;2023-02-12T04:29:32;103732.84;;;6.28;82.28
59043;BME280;44826;51.596;5.624;2023-02-12T04:32:11;103739.78;;;6.29;82.25
59043;BME280;44826;51.596;5.624;2023-02-12T04:34:50;103734.66;;;6.30;82.04
59043;BME280;44826;51.596;5.624;2023-02-12T04:37:40;103741.63;;;6.33;82.29
59043;BME280;44826;51.596;5.624;2023-02-12T04:40:11;103751.97;;;6.33;81.61
59043;BME280;44826;51.596;5.624;2023-02-12T04:42:45;103740.00;;;6.35;81.75
59043;BME280;44826;51.596;5.624;2023-02-12T04:45:13;103743.41;;;6.34;81.34
59043;BME280;44826;51.596;5.624;2023-02-12T04:47:40;103748.56;;;6.34;81.62
59043;BME280;44826;51.596;5.624;2023-02-12T04:50:06;103742.56;;;6.35;81.09
59043;BME280;44826;51.596;5.624;2023-02-12T04:52:31;103744.41;;;6.37;81.31
59043;BME280;44826;51.596;5.624;2023-02-12T04:54:56;103744.41;;;6.37;81.44
59043;BME280;44826;51.596;5.624;2023-02-12T04:57:22;103744.47;;;6.39;80.86
59043;BME280;44826;51.596;5.624;2023-02-12T04:59:47;103748.81;;;6.40;80.74
59043;BME280;44826;51.596;5.624;2023-02-12T05:02:12;103747.09;;;6.41;81.06
59043;BME280;44826;51.596;5.624;2023-02-12T05:04:37;103748.00;;;6.41;80.92
59043;BME280;44826;51.596;5.624;2023-02-12T05:07:03;103745.41;;;6.41;80.53
59043;BME280;44826;51.596;5.624;2023-02-12T05:09:28;103742.88;;;6.43;81.47
59043;BME280;44826;51.596;5.624;2023-02-12T05:11:53;103746.34;;;6.43;81.27
59043;BME280;44826;51.596;5.624;2023-02-12T05:14:19;103744.59;;;6.42;81.31
59043;BME280;44826;51.596;5.624;2023-02-12T05:16:44;103744.63;;;6.44;81.06
59043;BME280;44826;51.596;5.624;2023-02-12T05:19:09;103751.53;;;6.43;81.14
59043;BME280;44826;51.596;5.624;2023-02-12T05:21:36;103754.13;;;6.43;80.63
59043;BME280;44826;51.596;5.624;2023-02-12T05:24:02;103753.22;;;6.43;80.96
59043;BME280;44826;51.596;5.624;2023-02-12T05:26:28;103759.28;;;6.43;80.52
59043;BME280;44826;51.596;5.624;2023-02-12T05:28:53;103761.06;;;6.44;81.49
59043;BME280;44826;51.596;5.624;2023-02-12T05:31:19;103757.53;;;6.42;82.02
59043;BME280;44826;51.596;5.624;2023-02-12T05:33:46;103759.16;;;6.40;82.12
59043;BME280;44826;51.596;5.624;2023-02-12T05:36:14;103759.84;;;6.36;82.72
59043;BME280;44826;51.596;5.624;2023-02-12T05:38:40;103757.16;;;6.33;82.57
59043;BME280;44826;51.596;5.624;2023-02-12T05:41:11;103760.50;;;6.30;82.57
59043;BME280;44826;51.596;5.624;2023-02-12T05:43:37;103762.16;;;6.28;83.09
59043;BME280;44826;51.596;5.624;2023-02-12T05:46:04;103760.34;;;6.26;83.52
59043;BME280;44826;51.596;5.624;2023-02-12T05:48:31;103763.75;;;6.25;83.34
59043;BME280;44826;51.596;5.624;2023-02-12T05:51:09;103761.97;;;6.23;83.40
59043;BME280;44826;51.596;5.624;2023-02-12T05:53:34;103766.16;;;6.20;83.25
59043;BME280;44826;51.596;5.624;2023-02-12T05:56:17;103764.44;;;6.20;83.29
59043;BME280;44826;51.596;5.624;2023-02-12T05:58:46;103767.78;;;6.18;83.76
59043;BME280;44826;51.596;5.624;2023-02-12T06:01:14;103765.13;;;6.16;83.66
59043;BME280;44826;51.596;5.624;2023-02-12T06:03:40;103768.66;;;6.18;84.46
59043;BME280;44826;51.596;5.624;2023-02-12T06:06:07;103772.06;;;6.17;84.48
59043;BME280;44826;51.596;5.624;2023-02-12T06:08:33;103772.81;;;6.15;84.42
59043;BME280;44826;51.596;5.624;2023-02-12T06:11:00;103773.59;;;6.12;84.09
59043;BME280;44826;51.596;5.624;2023-02-12T06:13:26;103780.53;;;6.13;84.33
59043;BME280;44826;51.596;5.624;2023-02-12T06:15:51;103773.63;;;6.14;84.15
59043;BME280;44826;51.596;5.624;2023-02-12T06:18:16;103776.19;;;6.12;84.25
59043;BME280;44826;51.596;5.624;2023-02-12T06:20:42;103774.41;;;6.11;83.73
59043;BME280;44826;51.596;5.624;2023-02-12T06:23:07;103769.16;;;6.10;84.29
59043;BME280;44826;51.596;5.624;2023-02-12T06:25:32;103770.94;;;6.11;84.27
59043;BME280;44826;51.596;5.624;2023-02-12T06:27:58;103780.41;;;6.10;84.58
59043;BME280;44826;51.596;5.624;2023-02-12T06:30:23;103770.81;;;6.07;84.56
59043;BME280;44826;51.596;5.624;2023-02-12T06:32:49;103776.78;;;6.06;84.64
59043;BME280;44826;51.596;5.624;2023-02-12T06:35:14;103781.91;;;6.05;84.58
59043;BME280;44826;51.596;5.624;2023-02-12T06:37:39;103783.66;;;6.06;84.91
59043;BME280;44826;51.596;5.624;2023-02-12T06:40:05;103784.53;;;6.06;84.96
59043;BME280;44826;51.596;5.624;2023-02-12T06:42:31;103778.50;;;6.06;84.96
59043;BME280;44826;51.596;5.624;2023-02-12T06:44:56;103780.28;;;6.07;84.97
59043;BME280;44826;51.596;5.624;2023-02-12T06:47:21;103778.50;;;6.06;84.29
59043;BME280;44826;51.596;5.624;2023-02-12T06:49:46;103781.13;;;6.07;83.84
59043;BME280;44826;51.596;5.624;2023-02-12T06:52:12;103782.03;;;6.08;83.27
59043;BME280;44826;51.596;5.624;2023-02-12T06:54:38;103789.09;;;6.12;83.67
59043;BME280;44826;51.596;5.624;2023-02-12T06:57:03;103787.38;;;6.13;83.58
59043;BME280;44826;51.596;5.624;2023-02-12T06:59:29;103792.56;;;6.13;84.30
59043;BME280;44826;51.596;5.624;2023-02-12T07:01:54;103790.88;;;6.13;84.94
59043;BME280;44826;51.596;5.624;2023-02-12T07:04:19;103794.28;;;6.12;84.57
59043;BME280;44826;51.596;5.624;2023-02-12T07:06:45;103802.97;;;6.14;84.93
59043;BME280;44826;51.596;5.624;2023-02-12T07:09:10;103801.22;;;6.13;84.72
59043;BME280;44826;51.596;5.624;2023-02-12T07:11:36;103808.19;;;6.16;84.57
59043;BME280;44826;51.596;5.624;2023-02-12T07:14:02;103798.66;;;6.15;84.63
59043;BME280;44826;51.596;5.624;2023-02-12T07:16:27;103800.38;;;6.14;84.68
59043;BME280;44826;51.596;5.624;2023-02-12T07:18:52;103796.03;;;6.13;84.57
59043;BME280;44826;51.596;5.624;2023-02-12T07:21:18;103804.63;;;6.12;84.86
59043;BME280;44826;51.596;5.624;2023-02-12T07:23:48;103806.38;;;6.13;84.73
59043;BME280;44826;51.596;5.624;2023-02-12T07:26:14;103805.56;;;6.14;85.21
59043;BME280;44826;51.596;5.624;2023-02-12T07:28:40;103806.47;;;6.16;84.66
59043;BME280;44826;51.596;5.624;2023-02-12T07:33:33;103811.78;;;6.19;84.82
59043;BME280;44826;51.596;5.624;2023-02-12T07:35:59;103818.72;;;6.20;84.52
59043;BME280;44826;51.596;5.624;2023-02-12T07:38:24;103804.16;;;6.22;83.93
59043;BME280;44826;51.596;5.624;2023-02-12T07:40:50;103811.97;;;6.24;84.03
59043;BME280;44826;51.596;5.624;2023-02-12T07:43:15;103809.44;;;6.26;84.60
59043;BME280;44826;51.596;5.624;2023-02-12T07:45:40;103822.38;;;6.26;84.36
59043;BME280;44826;51.596;5.624;2023-02-12T07:48:06;103818.06;;;6.26;84.32
59043;BME280;44826;51.596;5.624;2023-02-12T07:50:31;103825.91;;;6.28;84.66
59043;BME280;44826;51.596;5.624;2023-02-12T07:52:56;103823.38;;;6.29;85.38
59043;BME280;44826;51.596;5.624;2023-02-12T07:55:22;103826.84;;;6.30;85.23
59043;BME280;44826;51.596;5.624;2023-02-12T07:57:47;103816.56;;;6.31;84.96
59043;BME280;44826;51.596;5.624;2023-02-12T08:00:13;103819.19;;;6.33;84.61
59043;BME280;44826;51.596;5.624;2023-02-12T08:02:38;103823.63;;;6.35;84.12
59043;BME280;44826;51.596;5.624;2023-02-12T08:05:04;103824.50;;;6.36;84.02
59043;BME280;44826;51.596;5.624;2023-02-12T08:07:29;103819.34;;;6.36;84.62
59043;BME280;44826;51.596;5.624;2023-02-12T08:09:54;103826.28;;;6.37;84.92
59043;BME280;44826;51.596;5.624;2023-02-12T08:12:20;103822.88;;;6.38;85.16
59043;BME280;44826;51.596;5.624;2023-02-12T08:14:45;103828.97;;;6.40;84.99
59043;BME280;44826;51.596;5.624;2023-02-12T08:17:10;103835.09;;;6.42;85.12
59043;BME280;44826;51.596;5.624;2023-02-12T08:19:36;103840.41;;;6.45;84.61
59043;BME280;44826;51.596;5.624;2023-02-12T08:22:01;103833.47;;;6.44;84.92
59043;BME280;44826;51.596;5.624;2023-02-12T08:24:27;103837.81;;;6.45;85.00
59043;BME280;44826;51.596;5.624;2023-02-12T08:26:53;103845.63;;;6.47;84.55
59043;BME280;44826;51.596;5.624;2023-02-12T08:29:21;103840.53;;;6.48;85.10
59043;BME280;44826;51.596;5.624;2023-02-12T08:31:49;103840.63;;;6.51;84.81
59043;BME280;44826;51.596;5.624;2023-02-12T08:34:26;103838.16;;;6.55;84.77
59043;BME280;44826;51.596;5.624;2023-02-12T08:36:53;103849.47;;;6.57;85.04
59043;BME280;44826;51.596;5.624;2023-02-12T08:39:19;103847.81;;;6.59;85.63
59043;BME280;44826;51.596;5.624;2023-02-12T08:41:45;103854.75;;;6.60;85.42
59043;BME280;44826;51.596;5.624;2023-02-12T08:44:12;103857.41;;;6.61;85.30
59043;BME280;44826;51.596;5.624;2023-02-12T08:46:41;103862.56;;;6.61;85.46
59043;BME280;44826;51.596;5.624;2023-02-12T08:49:11;103860.94;;;6.63;84.78
59043;BME280;44826;51.596;5.624;2023-02-12T08:51:41;103851.56;;;6.67;84.93
59043;BME280;44826;51.596;5.624;2023-02-12T08:54:15;103853.47;;;6.71;84.80
59043;BME280;44826;51.596;5.624;2023-02-12T08:56:42;103852.66;;;6.72;84.78
59043;BME280;44826;51.596;5.624;2023-02-12T08:59:09;103859.72;;;6.76;85.22
59043;BME280;44826;51.596;5.624;2023-02-12T09:01:36;103864.94;;;6.78;84.98
59043;BME280;44826;51.596;5.624;2023-02-12T09:04:13;103864.19;;;6.80;85.00
59043;BME280;44826;51.596;5.624;2023-02-12T09:06:39;103865.97;;;6.81;83.93
59043;BME280;44826;51.596;5.624;2023-02-12T09:09:04;103862.66;;;6.86;84.84
59043;BME280;44826;51.596;5.624;2023-02-12T09:11:32;103862.66;;;6.86;84.78
59043;BME280;44826;51.596;5.624;2023-02-12T09:14:02;103867.94;;;6.89;84.87
59043;BME280;44826;51.596;5.624;2023-02-12T09:16:29;103868.94;;;6.92;85.33
59043;BME280;44826;51.596;5.624;2023-02-12T09:18:55;103871.66;;;6.95;84.13
59043;BME280;44826;51.596;5.624;2023-02-12T09:21:21;103862.19;;;6.96;84.18
59043;BME280;44826;51.596;5.624;2023-02-12T09:23:47;103864.00;;;6.98;84.40
59043;BME280;44826;51.596;5.624;2023-02-12T09:26:15;103867.50;;;6.99;84.47
59043;BME280;44826;51.596;5.624;2023-02-12T09:28:41;103871.06;;;7.03;84.81
59043;BME280;44826;51.596;5.624;2023-02-12T09:31:12;103875.47;;;7.05;84.67
59043;BME280;44826;51.596;5.624;2023-02-12T09:33:39;103878.16;;;7.07;84.65
59043;BME280;44826;51.596;5.624;2023-02-12T09:36:07;103876.47;;;7.09;83.88
59043;BME280;44826;51.596;5.624;2023-02-12T09:38:33;103873.84;;;7.07;84.16
59043;BME280;44826;51.596;5.624;2023-02-12T09:46:51;103870.66;;;7.14;84.06
59043;BME280;44826;51.596;5.624;2023-02-12T09:52:19;103865.69;;;7.21;83.90
59043;BME280;44826;51.596;5.624;2023-02-12T09:54:46;103866.63;;;7.23;83.87
59043;BME280;44826;51.596;5.624;2023-02-12T09:57:24;103870.16;;;7.25;83.90
59043;BME280;44826;51.596;5.624;2023-02-12T09:59:54;103875.47;;;7.28;83.45
59043;BME280;44826;51.596;5.624;2023-02-12T10:02:22;103876.41;;;7.30;83.77
59043;BME280;44826;51.596;5.624;2023-02-12T10:04:48;103879.13;;;7.33;83.51
59043;BME280;44826;51.596;5.624;2023-02-12T10:10:16;103875.78;;;7.37;83.26
59043;BME280;44826;51.596;5.624;2023-02-12T10:12:59;103880.22;;;7.40;83.69
59043;BME280;44826;51.596;5.624;2023-02-12T10:24:21;103873.88;;;7.56;83.17
59043;BME280;44826;51.596;5.624;2023-02-12T10:26:53;103872.09;;;7.55;82.65
59043;BME280;44826;51.596;5.624;2023-02-12T10:29:26;103867.00;;;7.56;82.77
59043;BME280;44826;51.596;5.624;2023-02-12T10:31:59;103869.72;;;7.59;82.49
59043;BME280;44826;51.596;5.624;2023-02-12T10:34:31;103871.56;;;7.64;82.57
59043;BME280;44826;51.596;5.624;2023-02-12T10:37:13;103872.56;;;7.67;82.15
59043;BME280;44826;51.596;5.624;2023-02-12T10:39:49;103867.44;;;7.69;81.23
59043;BME280;44826;51.596;5.624;2023-02-12T10:42:24;103867.47;;;7.70;80.86
59043;BME280;44826;51.596;5.624;2023-02-12T10:44:50;103864.94;;;7.72;80.79
59043;BME280;44826;51.596;5.624;2023-02-12T10:47:20;103872.88;;;7.77;80.83
59043;BME280;44826;51.596;5.624;2023-02-12T10:49:55;103863.44;;;7.79;81.15
59043;BME280;44826;51.596;5.624;2023-02-12T10:52:52;103872.28;;;7.84;80.98
59043;BME280;44826;51.596;5.624;2023-02-12T10:57:54;103866.34;;;7.88;78.64
59043;BME280;44826;51.596;5.624;2023-02-12T11:05:39;103871.16;;;8.01;78.03
59043;BME280;44826;51.596;5.624;2023-02-12T11:08:05;103870.41;;;8.05;77.38
59043;BME280;44826;51.596;5.624;2023-02-12T11:10:36;103863.56;;;8.08;76.67
59043;BME280;44826;51.596;5.624;2023-02-12T11:13:02;103871.44;;;8.11;77.29
59043;BME280;44826;51.596;5.624;2023-02-12T11:15:45;103865.44;;;8.12;78.07
59043;BME280;44826;51.596;5.624;2023-02-12T11:18:22;103864.63;;;8.14;77.77
59043;BME280;44826;51.596;5.624;2023-02-12T11:20:59;103861.31;;;8.18;78.92
59043;BME280;44826;51.596;5.624;2023-02-12T11:23:34;103859.63;;;8.19;77.74
59043;BME280;44826;51.596;5.624;2023-02-12T11:34:07;103860.63;;;8.24;78.02
59043;BME280;44826;51.596;5.624;2023-02-12T11:36:51;103858.88;;;8.23;78.10
59043;BME280;44826;51.596;5.624;2023-02-12T11:39:23;103856.25;;;8.22;77.14
59043;BME280;44826;51.596;5.624;2023-02-12T11:42:05;103854.50;;;8.22;76.63
59043;BME280;44826;51.596;5.624;2023-02-12T11:44:40;103850.25;;;8.24;76.74
59043;BME280;44826;51.596;5.624;2023-02-12T11:47:09;103846.84;;;8.25;77.25
59043;BME280;44826;51.596;5.624;2023-02-12T11:52:35;103843.53;;;8.29;77.05
59043;BME280;44826;51.596;5.624;2023-02-12T11:55:05;103834.91;;;8.30;75.72
59043;BME280;44826;51.596;5.624;2023-02-12T11:57:46;103835.00;;;8.33;75.89
59043;BME280;44826;51.596;5.624;2023-02-12T12:00:19;103839.50;;;8.39;75.54
59043;BME280;44826;51.596;5.624;2023-02-12T12:02:54;103842.16;;;8.41;75.87
59043;BME280;44826;51.596;5.624;2023-02-12T12:05:26;103842.22;;;8.42;75.39
59043;BME280;44826;51.596;5.624;2023-02-12T12:07:59;103832.69;;;8.43;75.51
59043;BME280;44826;51.596;5.624;2023-02-12T12:10:40;103831.00;;;8.43;75.33
59043;BME280;44826;51.596;5.624;2023-02-12T12:13:14;103829.34;;;8.45;75.56
59043;BME280;44826;51.596;5.624;2023-02-12T12:15:46;103832.03;;;8.48;75.41
59043;BME280;44826;51.596;5.624;2023-02-12T12:18:46;103825.16;;;8.49;75.82
59043;BME280;44826;51.596;5.624;2023-02-12T12:21:41;103820.69;;;8.46;76.20
59043;BME280;44826;51.596;5.624;2023-02-12T12:24:19;103827.56;;;8.44;76.15
59043;BME280;44826;51.596;5.624;2023-02-12T12:26:56;103819.84;;;8.46;75.48
59043;BME280;44826;51.596;5.624;2023-02-12T12:30:01;103819.97;;;8.49;74.71
59043;BME280;44826;51.596;5.624;2023-02-12T12:32:29;103815.63;;;8.49;75.41
59043;BME280;44826;51.596;5.624;2023-02-12T12:34:55;103813.03;;;8.49;73.90
59043;BME280;44826;51.596;5.624;2023-02-12T12:37:31;103813.94;;;8.50;73.93
59043;BME280;44826;51.596;5.624;2023-02-12T12:43:01;103807.00;;;8.49;74.07
59043;BME280;44826;51.596;5.624;2023-02-12T12:46:28;103807.03;;;8.50;74.01
59043;BME280;44826;51.596;5.624;2023-02-12T12:48:51;103803.56;;;8.50;73.71
59043;BME280;44826;51.596;5.624;2023-02-12T12:54:17;103794.13;;;8.52;73.00
59043;BME280;44826;51.596;5.624;2023-02-12T12:56:48;103793.28;;;8.53;74.15
59043;BME280;44826;51.596;5.624;2023-02-12T12:59:41;103787.22;;;8.54;74.05
59043;BME280;44826;51.596;5.624;2023-02-12T13:10:54;103788.22;;;8.58;74.57
59043;BME280;44826;51.596;5.624;2023-02-12T13:13:34;103777.78;;;8.56;74.51
59043;BME280;44826;51.596;5.624;2023-02-12T13:16:17;103782.09;;;8.56;74.29
59043;BME280;44826;51.596;5.624;2023-02-12T13:18:54;103770.84;;;8.55;74.03
59043;BME280;44826;51.596;5.624;2023-02-12T13:24:28;103772.47;;;8.52;74.33
59043;BME280;44826;51.596;5.624;2023-02-12T13:27:01;103769.69;;;8.47;74.27
59043;BME280;44826;51.596;5.624;2023-02-12T13:29:36;103768.81;;;8.46;75.16
59043;BME280;44826;51.596;5.624;2023-02-12T13:32:06;103763.47;;;8.42;75.14
59043;BME280;44826;51.596;5.624;2023-02-12T13:34:36;103761.69;;;8.39;75.04
59043;BME280;44826;51.596;5.624;2023-02-12T13:37:04;103765.13;;;8.38;75.40
59043;BME280;44826;51.596;5.624;2023-02-12T13:39:36;103762.50;;;8.37;75.41
59043;BME280;44826;51.596;5.624;2023-02-12T13:47:58;103764.16;;;8.34;76.06
59043;BME280;44826;51.596;5.624;2023-02-12T13:50:49;103760.53;;;8.29;76.02
59043;BME280;44826;51.596;5.624;2023-02-12T13:53:23;103764.75;;;8.26;75.07
59043;BME280;44826;51.596;5.624;2023-02-12T13:55:56;103756.13;;;8.27;74.97
59043;BME280;44826;51.596;5.624;2023-02-12T14:09:29;103751.91;;;8.30;75.19
59043;BME280;44826;51.596;5.624;2023-02-12T14:11:57;103746.63;;;8.27;75.66
59043;BME280;44826;51.596;5.624;2023-02-12T14:14:35;103739.66;;;8.26;75.42
59043;BME280;44826;51.596;5.624;2023-02-12T14:25:40;103743.06;;;8.24;76.11
59043;BME280;44826;51.596;5.624;2023-02-12T14:28:19;103744.75;;;8.23;76.07
59043;BME280;44826;51.596;5.624;2023-02-12T14:31:20;103739.56;;;8.23;75.92
59043;BME280;44826;51.596;5.624;2023-02-12T14:33:48;103739.56;;;8.23;75.38
59043;BME280;44826;51.596;5.624;2023-02-12T14:36:16;103734.34;;;8.22;75.49
59043;BME280;44826;51.596;5.624;2023-02-12T14:41:27;103731.69;;;8.20;75.80
59043;BME280;44826;51.596;5.624;2023-02-12T14:49:27;103743.75;;;8.18;75.72
59043;BME280;44826;51.596;5.624;2023-02-12T14:54:48;103740.13;;;8.13;75.70
59043;BME280;44826;51.596;5.624;2023-02-12T14:57:25;103731.41;;;8.11;75.67
59043;BME280;44826;51.596;5.624;2023-02-12T15:00:03;103735.66;;;8.09;75.95
59043;BME280;44826;51.596;5.624;2023-02-12T15:02:33;103728.81;;;8.11;76.29
59043;BME280;44826;51.596;5.624;2023-02-12T15:05:04;103724.53;;;8.11;76.27
59043;BME280;44826;51.596;5.624;2023-02-12T15:07:48;103727.16;;;8.13;76.31
59043;BME280;44826;51.596;5.624;2023-02-12T15:10:19;103720.22;;;8.12;76.19
59043;BME280;44826;51.596;5.624;2023-02-12T15:13:14;103721.09;;;8.12;76.19
59043;BME280;44826;51.596;5.624;2023-02-12T15:18:25;103717.59;;;8.10;75.60
59043;BME280;44826;51.596;5.624;2023-02-12T15:20:59;103714.94;;;8.09;75.92
59043;BME280;44826;51.596;5.624;2023-02-12T15:23:40;103712.31;;;8.07;75.71
59043;BME280;44826;51.596;5.624;2023-02-12T15:26:13;103717.50;;;8.07;75.45
59043;BME280;44826;51.596;5.624;2023-02-12T15:28:40;103719.16;;;8.05;75.55
59043;BME280;44826;51.596;5.624;2023-02-12T15:31:08;103718.25;;;8.04;75.83